Missouri River (Missouri), Jefferson City (06910450)

StateMissouriLatestUnknown (77100 cfs)
RiverMissouri RiverRatingObservedEstimated
Updated2020-07-13 19:45 (7 minutes ago)Flood - The river is flooding. Obstacles can be treacherous or deadly. The river should be avoided at this stage for casual trips and definitely for the inexperienced. Trips should be attempted only with protective gear and equipment.Flood(none)(none)
Discharge77100 cfs (median: 107000 cfs)High - The river is high and potentially dangerous, especially for the young and / or inexperienced. Normal stream obstacles are sometimes difficult to navigate. Extended distances can be attempted, but canoe travel may not be advisable.High(none)(none)
Height11.02 feetGood - Conditions are ideal for a canoe or kayak. Boats typically will drag on fewer than one-quarter of riffles, if at all, and portages are unnecessary or rare. Normal float lengths can be attempted without a problem.Good(none)(none)
TrendFalling (falling over 24 hours)Low - River is low but can still be floated. Some riffles are okay but most come with significant dragging and might need a portage. Float lengths should be reduced to accommodate low flow, dragging, and portages.Low(none)(none)
USGSExternal icon USGS Site (External icon Google Maps)Poor - River is too low to float comfortably. Most or all riffles will drag or must be portaged and some obstacles (such as slick shelf rock) cause undue problems. Avoid the river at this stage for casual paddling trips.Poor(none)(none)

Trending Data

Plot Image

Trips for Missouri River (Missouri), Jefferson City (06910450)

DateStartEndDistanceConditionDischargeHeightFishingDetails

A total of 0 rows are displayed.

Condition Descriptions

Fishing Conditions

Fish Species

Notes

Classic Trip List

The classic River Trips application is still available for use. It is updated with the new system using a data retrofit. It is no longer maintained. The original River Trips application is no longer updated (as of 1 Dec 2016) but can be checked for errors or for the condition of the data before it was converted to the new system.

Gauge Data Table

ObservationHeightDischargeMaximum
Discharge
Minimum
Discharge
Mean
Discharge
P05P10P20P25P50
(Median)
P75P80P90P95
2020-07-13 19:45 11.02 77100 205000 (2019) 71000 (2017) 123000 73400 76900 107000 177000 194000
2020-07-13 18:45 11.03 77200 205000 (2019) 71000 (2017) 123000 73400 76900 107000 177000 194000
2020-07-13 17:45 11.03 77200 205000 (2019) 71000 (2017) 123000 73400 76900 107000 177000 194000
2020-07-13 16:45 11.06 77400 205000 (2019) 71000 (2017) 123000 73400 76900 107000 177000 194000
2020-07-13 15:45 11.05 77300 205000 (2019) 71000 (2017) 123000 73400 76900 107000 177000 194000
2020-07-13 14:45 11.04 77300 205000 (2019) 71000 (2017) 123000 73400 76900 107000 177000 194000
2020-07-13 13:45 11.10 77700 205000 (2019) 71000 (2017) 123000 73400 76900 107000 177000 194000
2020-07-13 12:45 11.10 77700 205000 (2019) 71000 (2017) 123000 73400 76900 107000 177000 194000
2020-07-13 11:45 11.12 77800 205000 (2019) 71000 (2017) 123000 73400 76900 107000 177000 194000
2020-07-13 10:45 11.09 77600 205000 (2019) 71000 (2017) 123000 73400 76900 107000 177000 194000
2020-07-13 09:45 11.10 77700 205000 (2019) 71000 (2017) 123000 73400 76900 107000 177000 194000
2020-07-13 08:45 11.16 78100 205000 (2019) 71000 (2017) 123000 73400 76900 107000 177000 194000
2020-07-13 07:45 11.17 78200 205000 (2019) 71000 (2017) 123000 73400 76900 107000 177000 194000
2020-07-13 06:45 11.19 78400 205000 (2019) 71000 (2017) 123000 73400 76900 107000 177000 194000
2020-07-13 05:45 11.21 78500 205000 (2019) 71000 (2017) 123000 73400 76900 107000 177000 194000
2020-07-13 04:45 11.23 78700 205000 (2019) 71000 (2017) 123000 73400 76900 107000 177000 194000
2020-07-13 03:45 11.20 78400 205000 (2019) 71000 (2017) 123000 73400 76900 107000 177000 194000
2020-07-13 02:45 11.20 78400 205000 (2019) 71000 (2017) 123000 73400 76900 107000 177000 194000
2020-07-13 01:45 11.22 78600 205000 (2019) 71000 (2017) 123000 73400 76900 107000 177000 194000
2020-07-13 00:45 11.25 78800 205000 (2019) 71000 (2017) 123000 73400 76900 107000 177000 194000
2020-07-12 23:45 11.24 78700 213000 (2019) 73900 (2017) 125000 76600 80600 110000 176000 198000
2020-07-12 22:45 11.25 78800 213000 (2019) 73900 (2017) 125000 76600 80600 110000 176000 198000
2020-07-12 21:45 11.26 78900 213000 (2019) 73900 (2017) 125000 76600 80600 110000 176000 198000
2020-07-12 20:45 11.28 79000 213000 (2019) 73900 (2017) 125000 76600 80600 110000 176000 198000
2020-07-12 19:45 11.30 79200 213000 (2019) 73900 (2017) 125000 76600 80600 110000 176000 198000
2020-07-12 18:45 11.31 79200 213000 (2019) 73900 (2017) 125000 76600 80600 110000 176000 198000
2020-07-12 17:45 11.29 79100 213000 (2019) 73900 (2017) 125000 76600 80600 110000 176000 198000
2020-07-12 16:45 11.30 79200 213000 (2019) 73900 (2017) 125000 76600 80600 110000 176000 198000
2020-07-12 15:45 11.33 79400 213000 (2019) 73900 (2017) 125000 76600 80600 110000 176000 198000
2020-07-12 14:45 11.33 79400 213000 (2019) 73900 (2017) 125000 76600 80600 110000 176000 198000
2020-07-12 13:45 11.33 79400 213000 (2019) 73900 (2017) 125000 76600 80600 110000 176000 198000
2020-07-12 12:45 11.32 79300 213000 (2019) 73900 (2017) 125000 76600 80600 110000 176000 198000
2020-07-12 11:45 11.35 79500 213000 (2019) 73900 (2017) 125000 76600 80600 110000 176000 198000
2020-07-12 10:45 11.33 79400 213000 (2019) 73900 (2017) 125000 76600 80600 110000 176000 198000
2020-07-12 09:45 11.33 79400 213000 (2019) 73900 (2017) 125000 76600 80600 110000 176000 198000
2020-07-12 08:45 11.32 79300 213000 (2019) 73900 (2017) 125000 76600 80600 110000 176000 198000
2020-07-12 07:45 11.39 79800 213000 (2019) 73900 (2017) 125000 76600 80600 110000 176000 198000
2020-07-12 06:45 11.39 79800 213000 (2019) 73900 (2017) 125000 76600 80600 110000 176000 198000
2020-07-12 05:45 11.40 79900 213000 (2019) 73900 (2017) 125000 76600 80600 110000 176000 198000
2020-07-12 04:45 11.42 80100 213000 (2019) 73900 (2017) 125000 76600 80600 110000 176000 198000
2020-07-12 03:45 11.41 80000 213000 (2019) 73900 (2017) 125000 76600 80600 110000 176000 198000
2020-07-12 02:45 11.42 80100 213000 (2019) 73900 (2017) 125000 76600 80600 110000 176000 198000
2020-07-12 01:45 11.46 80400 213000 (2019) 73900 (2017) 125000 76600 80600 110000 176000 198000
2020-07-12 00:45 11.48 80500 213000 (2019) 73900 (2017) 125000 76600 80600 110000 176000 198000
2020-07-11 23:45 11.46 80400 221000 (2019) 76500 (2017) 134000 79100 83100 113000 197000 211000
2020-07-11 22:45 11.50 80700 221000 (2019) 76500 (2017) 134000 79100 83100 113000 197000 211000
2020-07-11 21:45 11.50 80700 221000 (2019) 76500 (2017) 134000 79100 83100 113000 197000 211000
2020-07-11 20:45 11.53 80900 221000 (2019) 76500 (2017) 134000 79100 83100 113000 197000 211000
2020-07-11 19:45 11.53 80900 221000 (2019) 76500 (2017) 134000 79100 83100 113000 197000 211000
2020-07-11 18:45 11.51 80800 221000 (2019) 76500 (2017) 134000 79100 83100 113000 197000 211000
2020-07-11 17:45 11.51 80800 221000 (2019) 76500 (2017) 134000 79100 83100 113000 197000 211000
2020-07-11 16:45 11.55 81100 221000 (2019) 76500 (2017) 134000 79100 83100 113000 197000 211000
2020-07-11 15:45 11.56 81100 221000 (2019) 76500 (2017) 134000 79100 83100 113000 197000 211000
2020-07-11 14:45 11.58 81300 221000 (2019) 76500 (2017) 134000 79100 83100 113000 197000 211000
2020-07-11 13:45 11.59 81400 221000 (2019) 76500 (2017) 134000 79100 83100 113000 197000 211000
2020-07-11 12:45 11.57 81200 221000 (2019) 76500 (2017) 134000 79100 83100 113000 197000 211000
2020-07-11 11:45 11.63 81700 221000 (2019) 76500 (2017) 134000 79100 83100 113000 197000 211000
2020-07-11 10:45 11.64 81700 221000 (2019) 76500 (2017) 134000 79100 83100 113000 197000 211000
2020-07-11 09:45 11.65 81800 221000 (2019) 76500 (2017) 134000 79100 83100 113000 197000 211000
2020-07-11 08:45 11.68 82000 221000 (2019) 76500 (2017) 134000 79100 83100 113000 197000 211000
2020-07-11 07:45 11.69 82100 221000 (2019) 76500 (2017) 134000 79100 83100 113000 197000 211000
2020-07-11 06:45 11.73 82400 221000 (2019) 76500 (2017) 134000 79100 83100 113000 197000 211000
2020-07-11 05:45 11.75 82600 221000 (2019) 76500 (2017) 134000 79100 83100 113000 197000 211000
2020-07-11 04:45 11.76 82700 221000 (2019) 76500 (2017) 134000 79100 83100 113000 197000 211000
2020-07-11 03:45 11.77 82700 221000 (2019) 76500 (2017) 134000 79100 83100 113000 197000 211000
2020-07-11 02:45 11.78 82800 221000 (2019) 76500 (2017) 134000 79100 83100 113000 197000 211000
2020-07-11 01:45 11.79 82900 221000 (2019) 76500 (2017) 134000 79100 83100 113000 197000 211000
2020-07-11 00:45 11.79 82900 221000 (2019) 76500 (2017) 134000 79100 83100 113000 197000 211000
2020-07-10 23:45 11.69 82100 231000 (2015) 79500 (2017) 149000 82000 85800 118000 229000 230000
2020-07-10 22:45 11.83 83200 231000 (2015) 79500 (2017) 149000 82000 85800 118000 229000 230000
2020-07-10 21:45 11.82 83100 231000 (2015) 79500 (2017) 149000 82000 85800 118000 229000 230000
2020-07-10 20:45 11.86 83400 231000 (2015) 79500 (2017) 149000 82000 85800 118000 229000 230000
2020-07-10 19:45 11.87 83500 231000 (2015) 79500 (2017) 149000 82000 85800 118000 229000 230000
2020-07-10 18:45 11.84 83300 231000 (2015) 79500 (2017) 149000 82000 85800 118000 229000 230000
2020-07-10 17:45 11.88 83600 231000 (2015) 79500 (2017) 149000 82000 85800 118000 229000 230000
2020-07-10 16:45 11.85 83400 231000 (2015) 79500 (2017) 149000 82000 85800 118000 229000 230000
2020-07-10 15:45 11.90 83800 231000 (2015) 79500 (2017) 149000 82000 85800 118000 229000 230000
2020-07-10 14:45 11.90 83800 231000 (2015) 79500 (2017) 149000 82000 85800 118000 229000 230000
2020-07-10 13:45 11.93 84000 231000 (2015) 79500 (2017) 149000 82000 85800 118000 229000 230000
2020-07-10 12:45 11.90 83800 231000 (2015) 79500 (2017) 149000 82000 85800 118000 229000 230000
2020-07-10 11:45 11.89 83700 231000 (2015) 79500 (2017) 149000 82000 85800 118000 229000 230000
2020-07-10 10:45 11.94 84100 231000 (2015) 79500 (2017) 149000 82000 85800 118000 229000 230000
2020-07-10 09:45 11.94 84100 231000 (2015) 79500 (2017) 149000 82000 85800 118000 229000 230000
2020-07-10 08:45 11.98 84400 231000 (2015) 79500 (2017) 149000 82000 85800 118000 229000 230000
2020-07-10 07:45 11.98 84400 231000 (2015) 79500 (2017) 149000 82000 85800 118000 229000 230000
2020-07-10 06:45 11.94 84100 231000 (2015) 79500 (2017) 149000 82000 85800 118000 229000 230000
2020-07-10 05:45 12.00 84500 231000 (2015) 79500 (2017) 149000 82000 85800 118000 229000 230000
2020-07-10 04:45 12.02 84700 231000 (2015) 79500 (2017) 149000 82000 85800 118000 229000 230000
2020-07-10 03:45 12.01 84600 231000 (2015) 79500 (2017) 149000 82000 85800 118000 229000 230000
2020-07-10 02:45 12.02 84700 231000 (2015) 79500 (2017) 149000 82000 85800 118000 229000 230000
2020-07-10 01:45 12.04 84900 231000 (2015) 79500 (2017) 149000 82000 85800 118000 229000 230000
2020-07-10 00:45 12.04 84900 231000 (2015) 79500 (2017) 149000 82000 85800 118000 229000 230000
2020-07-09 23:45 12.03 84800 244000 (2015) 85900 (2017) 158000 90300 97000 123000 237000 241000
2020-07-09 22:45 12.06 85000 244000 (2015) 85900 (2017) 158000 90300 97000 123000 237000 241000
2020-07-09 21:45 12.08 85200 244000 (2015) 85900 (2017) 158000 90300 97000 123000 237000 241000
2020-07-09 20:45 12.07 85100 244000 (2015) 85900 (2017) 158000 90300 97000 123000 237000 241000
2020-07-09 19:45 12.03 84800 244000 (2015) 85900 (2017) 158000 90300 97000 123000 237000 241000
2020-07-09 18:45 12.06 85000 244000 (2015) 85900 (2017) 158000 90300 97000 123000 237000 241000
2020-07-09 17:45 12.06 85000 244000 (2015) 85900 (2017) 158000 90300 97000 123000 237000 241000
2020-07-09 16:45 12.09 85200 244000 (2015) 85900 (2017) 158000 90300 97000 123000 237000 241000
2020-07-09 15:45 12.08 85200 244000 (2015) 85900 (2017) 158000 90300 97000 123000 237000 241000
2020-07-09 14:45 12.11 85400 244000 (2015) 85900 (2017) 158000 90300 97000 123000 237000 241000
2020-07-09 13:45 12.06 85000 244000 (2015) 85900 (2017) 158000 90300 97000 123000 237000 241000
2020-07-09 12:45 12.13 85600 244000 (2015) 85900 (2017) 158000 90300 97000 123000 237000 241000
2020-07-09 11:45 12.15 85700 244000 (2015) 85900 (2017) 158000 90300 97000 123000 237000 241000
2020-07-09 10:45 12.14 85600 244000 (2015) 85900 (2017) 158000 90300 97000 123000 237000 241000
2020-07-09 09:45 12.12 85500 244000 (2015) 85900 (2017) 158000 90300 97000 123000 237000 241000
2020-07-09 08:45 12.17 85900 244000 (2015) 85900 (2017) 158000 90300 97000 123000 237000 241000
2020-07-09 07:45 12.19 86000 244000 (2015) 85900 (2017) 158000 90300 97000 123000 237000 241000
2020-07-09 06:45 12.20 86100 244000 (2015) 85900 (2017) 158000 90300 97000 123000 237000 241000
2020-07-09 05:45 12.27 86700 244000 (2015) 85900 (2017) 158000 90300 97000 123000 237000 241000
2020-07-09 04:45 12.28 86800 244000 (2015) 85900 (2017) 158000 90300 97000 123000 237000 241000
2020-07-09 03:45 12.26 86600 244000 (2015) 85900 (2017) 158000 90300 97000 123000 237000 241000
2020-07-09 02:45 12.29 86800 244000 (2015) 85900 (2017) 158000 90300 97000 123000 237000 241000
2020-07-09 01:45 12.34 87200 244000 (2015) 85900 (2017) 158000 90300 97000 123000 237000 241000
2020-07-09 00:45 12.33 87200 244000 (2015) 85900 (2017) 158000 90300 97000 123000 237000 241000
2020-07-08 23:45 12.36 87400 236000 (2019) 94600 (2017) 147000 99900 108000 129000 196000 220000
2020-07-08 22:45 12.41 87800 236000 (2019) 94600 (2017) 147000 99900 108000 129000 196000 220000
2020-07-08 21:45 12.42 87900 236000 (2019) 94600 (2017) 147000 99900 108000 129000 196000 220000
2020-07-08 20:45 12.46 88200 236000 (2019) 94600 (2017) 147000 99900 108000 129000 196000 220000
2020-07-08 19:45 12.48 88400 236000 (2019) 94600 (2017) 147000 99900 108000 129000 196000 220000
2020-07-08 18:45 12.48 88400 236000 (2019) 94600 (2017) 147000 99900 108000 129000 196000 220000
2020-07-08 17:45 12.52 88700 236000 (2019) 94600 (2017) 147000 99900 108000 129000 196000 220000
2020-07-08 16:45 12.54 88900 236000 (2019) 94600 (2017) 147000 99900 108000 129000 196000 220000
2020-07-08 15:45 12.52 88700 236000 (2019) 94600 (2017) 147000 99900 108000 129000 196000 220000
2020-07-08 14:45 12.58 89200 236000 (2019) 94600 (2017) 147000 99900 108000 129000 196000 220000
2020-07-08 13:45 12.60 89400 236000 (2019) 94600 (2017) 147000 99900 108000 129000 196000 220000
2020-07-08 12:45 12.62 89500 236000 (2019) 94600 (2017) 147000 99900 108000 129000 196000 220000
2020-07-08 11:45 12.64 89700 236000 (2019) 94600 (2017) 147000 99900 108000 129000 196000 220000
2020-07-08 10:45 12.62 89500 236000 (2019) 94600 (2017) 147000 99900 108000 129000 196000 220000
2020-07-08 09:45 12.68 90000 236000 (2019) 94600 (2017) 147000 99900 108000 129000 196000 220000
2020-07-08 08:45 12.66 89900 236000 (2019) 94600 (2017) 147000 99900 108000 129000 196000 220000
2020-07-08 07:45 12.74 90500 236000 (2019) 94600 (2017) 147000 99900 108000 129000 196000 220000
2020-07-08 06:45 12.76 90700 236000 (2019) 94600 (2017) 147000 99900 108000 129000 196000 220000
2020-07-08 05:45 12.81 91100 236000 (2019) 94600 (2017) 147000 99900 108000 129000 196000 220000
2020-07-08 04:45 12.83 91300 236000 (2019) 94600 (2017) 147000 99900 108000 129000 196000 220000
2020-07-08 03:45 12.86 91500 236000 (2019) 94600 (2017) 147000 99900 108000 129000 196000 220000
2020-07-08 02:45 12.86 91500 236000 (2019) 94600 (2017) 147000 99900 108000 129000 196000 220000
2020-07-08 01:45 12.89 91800 236000 (2019) 94600 (2017) 147000 99900 108000 129000 196000 220000
2020-07-08 00:45 12.91 91900 236000 (2019) 94600 (2017) 147000 99900 108000 129000 196000 220000
2020-07-07 23:45 12.94 92200 245000 (2019) 106000 (2017) 144000 107000 108000 126000 189000 223000
2020-07-07 22:45 12.94 92200 245000 (2019) 106000 (2017) 144000 107000 108000 126000 189000 223000
2020-07-07 21:45 12.97 92400 245000 (2019) 106000 (2017) 144000 107000 108000 126000 189000 223000
2020-07-07 20:45 12.98 92500 245000 (2019) 106000 (2017) 144000 107000 108000 126000 189000 223000
2020-07-07 19:45 13.01 92800 245000 (2019) 106000 (2017) 144000 107000 108000 126000 189000 223000
2020-07-07 18:45 13.02 92900 245000 (2019) 106000 (2017) 144000 107000 108000 126000 189000 223000
2020-07-07 17:45 13.04 93000 245000 (2019) 106000 (2017) 144000 107000 108000 126000 189000 223000
2020-07-07 16:45 13.07 93300 245000 (2019) 106000 (2017) 144000 107000 108000 126000 189000 223000
2020-07-07 15:45 13.07 93300 245000 (2019) 106000 (2017) 144000 107000 108000 126000 189000 223000
2020-07-07 14:45 13.04 93000 245000 (2019) 106000 (2017) 144000 107000 108000 126000 189000 223000
2020-07-07 13:45 13.02 92900 245000 (2019) 106000 (2017) 144000 107000 108000 126000 189000 223000
2020-07-07 12:45 13.07 93300 245000 (2019) 106000 (2017) 144000 107000 108000 126000 189000 223000
2020-07-07 11:45 13.08 93400 245000 (2019) 106000 (2017) 144000 107000 108000 126000 189000 223000
2020-07-07 10:45 13.11 93700 245000 (2019) 106000 (2017) 144000 107000 108000 126000 189000 223000
2020-07-07 09:45 13.10 93600 245000 (2019) 106000 (2017) 144000 107000 108000 126000 189000 223000
2020-07-07 08:45 13.11 93700 245000 (2019) 106000 (2017) 144000 107000 108000 126000 189000 223000
2020-07-07 07:45 13.20 94400 245000 (2019) 106000 (2017) 144000 107000 108000 126000 189000 223000
2020-07-07 06:45 13.21 94500 245000 (2019) 106000 (2017) 144000 107000 108000 126000 189000 223000
2020-07-07 05:45 13.24 94700 245000 (2019) 106000 (2017) 144000 107000 108000 126000 189000 223000
2020-07-07 04:45 13.30 95300 245000 (2019) 106000 (2017) 144000 107000 108000 126000 189000 223000
2020-07-07 03:45 13.33 95600 245000 (2019) 106000 (2017) 144000 107000 108000 126000 189000 223000
2020-07-07 02:45 13.34 95600 245000 (2019) 106000 (2017) 144000 107000 108000 126000 189000 223000
2020-07-07 01:45 13.39 96000 245000 (2019) 106000 (2017) 144000 107000 108000 126000 189000 223000
2020-07-07 00:45 13.42 96300 245000 (2019) 106000 (2017) 144000 107000 108000 126000 189000 223000
2020-07-06 23:45 13.50 97000 250000 (2019) 122000 (2016) 152000 122000 122000 129000 193000 227000
2020-07-06 22:45 13.54 97400 250000 (2019) 122000 (2016) 152000 122000 122000 129000 193000 227000
2020-07-06 21:45 13.50 97000 250000 (2019) 122000 (2016) 152000 122000 122000 129000 193000 227000
2020-07-06 20:45 13.62 98100 250000 (2019) 122000 (2016) 152000 122000 122000 129000 193000 227000
2020-07-06 19:45 13.67 98500 250000 (2019) 122000 (2016) 152000 122000 122000 129000 193000 227000
2020-07-06 18:45 13.72 98900 250000 (2019) 122000 (2016) 152000 122000 122000 129000 193000 227000
2020-07-06 17:45 13.74 99100 250000 (2019) 122000 (2016) 152000 122000 122000 129000 193000 227000
2020-07-06 16:45 13.75 99200 250000 (2019) 122000 (2016) 152000 122000 122000 129000 193000 227000
2020-07-06 15:45 13.76 99300 250000 (2019) 122000 (2016) 152000 122000 122000 129000 193000 227000
2020-07-06 14:45 13.85 100000 250000 (2019) 122000 (2016) 152000 122000 122000 129000 193000 227000
2020-07-06 13:45 13.83 100000 250000 (2019) 122000 (2016) 152000 122000 122000 129000 193000 227000
2020-07-06 12:45 13.92 101000 250000 (2019) 122000 (2016) 152000 122000 122000 129000 193000 227000
2020-07-06 11:45 13.97 101000 250000 (2019) 122000 (2016) 152000 122000 122000 129000 193000 227000
2020-07-06 10:45 13.97 101000 250000 (2019) 122000 (2016) 152000 122000 122000 129000 193000 227000
2020-07-06 09:45 14.02 102000 250000 (2019) 122000 (2016) 152000 122000 122000 129000 193000 227000
2020-07-06 08:45 14.02 102000 250000 (2019) 122000 (2016) 152000 122000 122000 129000 193000 227000
2020-07-06 07:45 14.08 102000 250000 (2019) 122000 (2016) 152000 122000 122000 129000 193000 227000
2020-07-06 06:45 14.09 102000 250000 (2019) 122000 (2016) 152000 122000 122000 129000 193000 227000
2020-07-06 05:45 14.12 103000 250000 (2019) 122000 (2016) 152000 122000 122000 129000 193000 227000
2020-07-06 04:45 14.15 103000 250000 (2019) 122000 (2016) 152000 122000 122000 129000 193000 227000
2020-07-06 03:45 14.16 103000 250000 (2019) 122000 (2016) 152000 122000 122000 129000 193000 227000
2020-07-06 02:45 14.19 103000 250000 (2019) 122000 (2016) 152000 122000 122000 129000 193000 227000
2020-07-06 01:45 14.19 103000 250000 (2019) 122000 (2016) 152000 122000 122000 129000 193000 227000
2020-07-06 00:45 14.20 103000 250000 (2019) 122000 (2016) 152000 122000 122000 129000 193000 227000

A total of 188 rows are displayed for years 2015 through 2019.